sensor_id;sensor_type;location;lat;lon;timestamp;temperature;humidity
11650;DHT22;5881;48.522;7.682;2023-07-24T00:02:06;19.10;99.90
11650;DHT22;5881;48.522;7.682;2023-07-24T00:04:32;19.10;1.00
11650;DHT22;5881;48.522;7.682;2023-07-24T00:07:00;19.00;1.00
11650;DHT22;5881;48.522;7.682;2023-07-24T00:09:25;19.00;99.90
11650;DHT22;5881;48.522;7.682;2023-07-24T00:11:51;19.00;1.00
11650;DHT22;5881;48.522;7.682;2023-07-24T00:14:17;18.90;99.90
11650;DHT22;5881;48.522;7.682;2023-07-24T00:16:43;19.00;99.90
11650;DHT22;5881;48.522;7.682;2023-07-24T00:19:08;18.90;1.00
11650;DHT22;5881;48.522;7.682;2023-07-24T00:21:34;18.90;99.90
11650;DHT22;5881;48.522;7.682;2023-07-24T00:23:59;19.00;99.90
11650;DHT22;5881;48.522;7.682;2023-07-24T00:26:28;19.00;99.90
11650;DHT22;5881;48.522;7.682;2023-07-24T00:28:54;19.00;1.00
11650;DHT22;5881;48.522;7.682;2023-07-24T00:31:19;19.00;1.00
11650;DHT22;5881;48.522;7.682;2023-07-24T00:33:45;18.90;1.00
11650;DHT22;5881;48.522;7.682;2023-07-24T00:36:11;18.90;1.00
11650;DHT22;5881;48.522;7.682;2023-07-24T00:38:36;18.90;18.10
11650;DHT22;5881;48.522;7.682;2023-07-24T00:41:02;19.00;1.00
11650;DHT22;5881;48.522;7.682;2023-07-24T00:43:27;19.00;99.90
11650;DHT22;5881;48.522;7.682;2023-07-24T00:45:54;18.80;1.00
11650;DHT22;5881;48.522;7.682;2023-07-24T00:48:21;18.80;1.00
11650;DHT22;5881;48.522;7.682;2023-07-24T00:50:47;18.80;1.00
11650;DHT22;5881;48.522;7.682;2023-07-24T00:53:13;18.80;1.00
11650;DHT22;5881;48.522;7.682;2023-07-24T00:55:41;18.70;99.90
11650;DHT22;5881;48.522;7.682;2023-07-24T00:58:07;18.70;1.00
11650;DHT22;5881;48.522;7.682;2023-07-24T01:00:33;18.70;1.00
11650;DHT22;5881;48.522;7.682;2023-07-24T01:02:59;18.60;1.00
11650;DHT22;5881;48.522;7.682;2023-07-24T01:05:25;18.60;1.00
11650;DHT22;5881;48.522;7.682;2023-07-24T01:07:52;18.60;99.90
11650;DHT22;5881;48.522;7.682;2023-07-24T01:10:18;18.60;1.00
11650;DHT22;5881;48.522;7.682;2023-07-24T01:13:05;18.50;1.00
11650;DHT22;5881;48.522;7.682;2023-07-24T01:15:36;18.50;1.00
11650;DHT22;5881;48.522;7.682;2023-07-24T01:18:10;18.50;99.90
11650;DHT22;5881;48.522;7.682;2023-07-24T01:20:38;18.50;99.90
11650;DHT22;5881;48.522;7.682;2023-07-24T01:23:23;18.60;1.00
11650;DHT22;5881;48.522;7.682;2023-07-24T01:25:59;18.50;1.00
11650;DHT22;5881;48.522;7.682;2023-07-24T01:28:26;18.40;99.90
11650;DHT22;5881;48.522;7.682;2023-07-24T01:30:51;18.40;99.90
11650;DHT22;5881;48.522;7.682;2023-07-24T01:33:17;18.40;1.00
11650;DHT22;5881;48.522;7.682;2023-07-24T01:35:44;18.40;1.00
11650;DHT22;5881;48.522;7.682;2023-07-24T01:38:13;18.40;99.90
11650;DHT22;5881;48.522;7.682;2023-07-24T01:40:40;18.50;1.00
11650;DHT22;5881;48.522;7.682;2023-07-24T01:43:06;18.50;99.90
11650;DHT22;5881;48.522;7.682;2023-07-24T01:45:31;18.50;1.00
11650;DHT22;5881;48.522;7.682;2023-07-24T01:47:59;18.50;99.90
11650;DHT22;5881;48.522;7.682;2023-07-24T01:50:25;18.40;1.00
11650;DHT22;5881;48.522;7.682;2023-07-24T01:52:50;18.40;1.00
11650;DHT22;5881;48.522;7.682;2023-07-24T01:55:16;18.40;1.00
11650;DHT22;5881;48.522;7.682;2023-07-24T01:57:42;18.40;1.00
11650;DHT22;5881;48.522;7.682;2023-07-24T02:00:08;18.40;1.00
11650;DHT22;5881;48.522;7.682;2023-07-24T02:02:34;18.40;99.90
11650;DHT22;5881;48.522;7.682;2023-07-24T02:04:59;18.40;1.00
11650;DHT22;5881;48.522;7.682;2023-07-24T02:07:25;18.40;20.30
11650;DHT22;5881;48.522;7.682;2023-07-24T02:09:50;18.40;1.00
11650;DHT22;5881;48.522;7.682;2023-07-24T02:12:16;18.50;1.00
11650;DHT22;5881;48.522;7.682;2023-07-24T02:14:41;18.40;1.00
11650;DHT22;5881;48.522;7.682;2023-07-24T02:17:07;18.40;21.10
11650;DHT22;5881;48.522;7.682;2023-07-24T02:19:33;18.40;99.90
11650;DHT22;5881;48.522;7.682;2023-07-24T02:21:58;18.30;99.90
11650;DHT22;5881;48.522;7.682;2023-07-24T02:24:24;18.40;99.90
11650;DHT22;5881;48.522;7.682;2023-07-24T02:26:49;18.40;99.90
11650;DHT22;5881;48.522;7.682;2023-07-24T02:29:15;18.40;99.90
11650;DHT22;5881;48.522;7.682;2023-07-24T02:31:41;18.40;99.90
11650;DHT22;5881;48.522;7.682;2023-07-24T02:34:06;18.40;99.90
11650;DHT22;5881;48.522;7.682;2023-07-24T02:36:32;18.40;99.90
11650;DHT22;5881;48.522;7.682;2023-07-24T02:38:57;18.40;99.90
11650;DHT22;5881;48.522;7.682;2023-07-24T02:41:23;18.40;1.00
11650;DHT22;5881;48.522;7.682;2023-07-24T02:43:49;18.50;99.90
11650;DHT22;5881;48.522;7.682;2023-07-24T02:46:14;18.50;99.90
11650;DHT22;5881;48.522;7.682;2023-07-24T02:48:40;18.40;99.90
11650;DHT22;5881;48.522;7.682;2023-07-24T02:51:05;18.40;1.00
11650;DHT22;5881;48.522;7.682;2023-07-24T02:53:31;18.40;1.00
11650;DHT22;5881;48.522;7.682;2023-07-24T02:55:56;18.40;1.00
11650;DHT22;5881;48.522;7.682;2023-07-24T02:58:22;18.40;1.00
11650;DHT22;5881;48.522;7.682;2023-07-24T03:00:48;18.40;1.00
11650;DHT22;5881;48.522;7.682;2023-07-24T03:03:13;18.30;1.00
11650;DHT22;5881;48.522;7.682;2023-07-24T03:05:39;18.30;1.00
11650;DHT22;5881;48.522;7.682;2023-07-24T03:08:04;18.30;1.00
11650;DHT22;5881;48.522;7.682;2023-07-24T03:10:30;18.20;1.00
11650;DHT22;5881;48.522;7.682;2023-07-24T03:12:56;18.20;1.00
11650;DHT22;5881;48.522;7.682;2023-07-24T03:15:22;18.10;1.00
11650;DHT22;5881;48.522;7.682;2023-07-24T03:17:47;18.20;1.00
11650;DHT22;5881;48.522;7.682;2023-07-24T03:20:15;18.10;1.00
11650;DHT22;5881;48.522;7.682;2023-07-24T03:22:42;18.20;1.00
11650;DHT22;5881;48.522;7.682;2023-07-24T03:25:08;18.10;1.00
11650;DHT22;5881;48.522;7.682;2023-07-24T03:27:34;18.00;1.00
11650;DHT22;5881;48.522;7.682;2023-07-24T03:29:59;18.10;1.00
11650;DHT22;5881;48.522;7.682;2023-07-24T03:32:27;18.10;1.00
11650;DHT22;5881;48.522;7.682;2023-07-24T03:34:53;18.10;1.00
11650;DHT22;5881;48.522;7.682;2023-07-24T03:37:19;18.10;1.00
11650;DHT22;5881;48.522;7.682;2023-07-24T03:39:44;18.20;1.00
11650;DHT22;5881;48.522;7.682;2023-07-24T03:42:10;18.20;99.90
11650;DHT22;5881;48.522;7.682;2023-07-24T03:44:39;18.30;99.90
11650;DHT22;5881;48.522;7.682;2023-07-24T03:47:05;18.30;1.00
11650;DHT22;5881;48.522;7.682;2023-07-24T03:49:30;18.30;1.00
11650;DHT22;5881;48.522;7.682;2023-07-24T03:51:56;18.30;1.00
11650;DHT22;5881;48.522;7.682;2023-07-24T03:54:22;18.30;1.00
11650;DHT22;5881;48.522;7.682;2023-07-24T03:56:47;18.30;1.00
11650;DHT22;5881;48.522;7.682;2023-07-24T03:59:13;18.30;1.00
11650;DHT22;5881;48.522;7.682;2023-07-24T04:01:38;18.20;1.00
11650;DHT22;5881;48.522;7.682;2023-07-24T04:04:04;18.30;1.00
11650;DHT22;5881;48.522;7.682;2023-07-24T04:06:30;18.20;1.00
11650;DHT22;5881;48.522;7.682;2023-07-24T04:08:55;18.10;99.90
11650;DHT22;5881;48.522;7.682;2023-07-24T04:11:23;18.00;1.00
11650;DHT22;5881;48.522;7.682;2023-07-24T04:13:49;18.00;1.00
11650;DHT22;5881;48.522;7.682;2023-07-24T04:16:15;18.10;1.00
11650;DHT22;5881;48.522;7.682;2023-07-24T04:18:40;18.10;99.90
11650;DHT22;5881;48.522;7.682;2023-07-24T04:21:06;18.10;1.00
11650;DHT22;5881;48.522;7.682;2023-07-24T04:23:32;18.10;99.90
11650;DHT22;5881;48.522;7.682;2023-07-24T04:25:57;18.10;99.90
11650;DHT22;5881;48.522;7.682;2023-07-24T04:28:23;18.00;99.90
11650;DHT22;5881;48.522;7.682;2023-07-24T04:30:48;18.20;99.90
11650;DHT22;5881;48.522;7.682;2023-07-24T04:33:17;18.10;91.20
11650;DHT22;5881;48.522;7.682;2023-07-24T04:35:42;18.10;1.00
11650;DHT22;5881;48.522;7.682;2023-07-24T04:38:08;18.10;1.00
11650;DHT22;5881;48.522;7.682;2023-07-24T04:40:34;18.10;99.90
11650;DHT22;5881;48.522;7.682;2023-07-24T04:42:59;18.20;99.90
11650;DHT22;5881;48.522;7.682;2023-07-24T04:45:25;18.10;10.70
11650;DHT22;5881;48.522;7.682;2023-07-24T04:47:50;18.20;1.00
11650;DHT22;5881;48.522;7.682;2023-07-24T04:50:16;18.20;1.00
11650;DHT22;5881;48.522;7.682;2023-07-24T04:52:41;18.00;99.90
11650;DHT22;5881;48.522;7.682;2023-07-24T04:55:07;18.00;1.00
11650;DHT22;5881;48.522;7.682;2023-07-24T04:57:33;18.00;1.00
11650;DHT22;5881;48.522;7.682;2023-07-24T04:59:58;18.00;1.00
11650;DHT22;5881;48.522;7.682;2023-07-24T05:02:24;18.10;1.00
11650;DHT22;5881;48.522;7.682;2023-07-24T05:04:49;18.10;1.00
11650;DHT22;5881;48.522;7.682;2023-07-24T05:07:15;18.20;99.90
11650;DHT22;5881;48.522;7.682;2023-07-24T05:09:41;18.20;99.90
11650;DHT22;5881;48.522;7.682;2023-07-24T05:12:06;18.30;60.10
11650;DHT22;5881;48.522;7.682;2023-07-24T05:14:32;18.40;1.00
11650;DHT22;5881;48.522;7.682;2023-07-24T05:16:58;18.50;99.90
11650;DHT22;5881;48.522;7.682;2023-07-24T05:19:23;18.40;99.90
11650;DHT22;5881;48.522;7.682;2023-07-24T05:21:49;18.40;99.90
11650;DHT22;5881;48.522;7.682;2023-07-24T05:24:14;18.30;1.00
11650;DHT22;5881;48.522;7.682;2023-07-24T05:26:40;18.40;1.00
11650;DHT22;5881;48.522;7.682;2023-07-24T05:29:05;18.30;99.90
11650;DHT22;5881;48.522;7.682;2023-07-24T05:31:31;18.50;99.90
11650;DHT22;5881;48.522;7.682;2023-07-24T05:33:59;18.40;99.90
11650;DHT22;5881;48.522;7.682;2023-07-24T05:36:24;18.50;41.60
11650;DHT22;5881;48.522;7.682;2023-07-24T05:38:51;18.50;1.00
11650;DHT22;5881;48.522;7.682;2023-07-24T05:41:18;18.50;1.00
11650;DHT22;5881;48.522;7.682;2023-07-24T05:43:43;18.60;1.00
11650;DHT22;5881;48.522;7.682;2023-07-24T05:46:09;18.50;1.00
11650;DHT22;5881;48.522;7.682;2023-07-24T05:48:34;18.60;1.00
11650;DHT22;5881;48.522;7.682;2023-07-24T05:51:00;18.60;1.00
11650;DHT22;5881;48.522;7.682;2023-07-24T05:53:26;18.60;1.00
11650;DHT22;5881;48.522;7.682;2023-07-24T05:55:58;18.70;1.00
11650;DHT22;5881;48.522;7.682;2023-07-24T05:58:25;18.80;1.00
11650;DHT22;5881;48.522;7.682;2023-07-24T06:00:51;18.90;99.90
11650;DHT22;5881;48.522;7.682;2023-07-24T06:03:16;19.00;99.90
11650;DHT22;5881;48.522;7.682;2023-07-24T06:05:42;19.10;99.90
11650;DHT22;5881;48.522;7.682;2023-07-24T06:08:08;19.20;99.90
11650;DHT22;5881;48.522;7.682;2023-07-24T06:10:37;19.20;99.90
11650;DHT22;5881;48.522;7.682;2023-07-24T06:13:03;19.20;99.90
11650;DHT22;5881;48.522;7.682;2023-07-24T06:15:28;19.30;99.90
11650;DHT22;5881;48.522;7.682;2023-07-24T06:17:54;19.30;99.90
11650;DHT22;5881;48.522;7.682;2023-07-24T06:20:19;19.30;99.90
11650;DHT22;5881;48.522;7.682;2023-07-24T06:22:45;19.30;99.90
11650;DHT22;5881;48.522;7.682;2023-07-24T06:25:10;19.30;99.90
11650;DHT22;5881;48.522;7.682;2023-07-24T06:27:36;19.20;99.90
11650;DHT22;5881;48.522;7.682;2023-07-24T06:30:02;19.30;1.00
11650;DHT22;5881;48.522;7.682;2023-07-24T06:32:28;19.10;99.90
11650;DHT22;5881;48.522;7.682;2023-07-24T06:34:54;19.00;1.00
11650;DHT22;5881;48.522;7.682;2023-07-24T06:37:19;18.90;1.00
11650;DHT22;5881;48.522;7.682;2023-07-24T06:39:45;18.80;99.90
11650;DHT22;5881;48.522;7.682;2023-07-24T06:42:10;18.80;99.90
11650;DHT22;5881;48.522;7.682;2023-07-24T06:44:36;18.80;99.90
11650;DHT22;5881;48.522;7.682;2023-07-24T06:47:02;18.80;1.00
11650;DHT22;5881;48.522;7.682;2023-07-24T06:49:27;18.90;8.50
11650;DHT22;5881;48.522;7.682;2023-07-24T06:51:53;18.80;99.90
11650;DHT22;5881;48.522;7.682;2023-07-24T06:54:18;18.70;1.00
11650;DHT22;5881;48.522;7.682;2023-07-24T06:56:44;18.70;1.00
11650;DHT22;5881;48.522;7.682;2023-07-24T06:59:09;18.70;99.90
11650;DHT22;5881;48.522;7.682;2023-07-24T07:01:35;18.50;99.90
11650;DHT22;5881;48.522;7.682;2023-07-24T07:04:01;18.40;1.00
11650;DHT22;5881;48.522;7.682;2023-07-24T07:06:26;18.40;1.00
11650;DHT22;5881;48.522;7.682;2023-07-24T07:08:52;18.40;1.00
11650;DHT22;5881;48.522;7.682;2023-07-24T07:11:17;18.30;61.50
11650;DHT22;5881;48.522;7.682;2023-07-24T07:13:44;18.30;78.20
11650;DHT22;5881;48.522;7.682;2023-07-24T07:16:10;18.30;99.90
11650;DHT22;5881;48.522;7.682;2023-07-24T07:18:35;18.30;99.90
11650;DHT22;5881;48.522;7.682;2023-07-24T07:21:01;18.30;99.90
11650;DHT22;5881;48.522;7.682;2023-07-24T07:23:26;18.40;99.90
11650;DHT22;5881;48.522;7.682;2023-07-24T07:25:52;18.40;99.90
11650;DHT22;5881;48.522;7.682;2023-07-24T07:28:18;18.40;99.90
11650;DHT22;5881;48.522;7.682;2023-07-24T07:30:44;18.40;99.90
11650;DHT22;5881;48.522;7.682;2023-07-24T07:33:10;18.50;99.90
11650;DHT22;5881;48.522;7.682;2023-07-24T07:35:36;18.50;99.90
11650;DHT22;5881;48.522;7.682;2023-07-24T07:38:02;18.50;99.90
11650;DHT22;5881;48.522;7.682;2023-07-24T07:40:28;18.50;99.90
11650;DHT22;5881;48.522;7.682;2023-07-24T07:42:54;18.60;99.90
11650;DHT22;5881;48.522;7.682;2023-07-24T07:45:20;18.70;99.90
11650;DHT22;5881;48.522;7.682;2023-07-24T07:47:46;18.80;99.90
11650;DHT22;5881;48.522;7.682;2023-07-24T07:50:11;18.90;99.90
11650;DHT22;5881;48.522;7.682;2023-07-24T07:52:38;19.10;99.90
11650;DHT22;5881;48.522;7.682;2023-07-24T07:55:04;19.10;99.90
11650;DHT22;5881;48.522;7.682;2023-07-24T07:57:34;19.20;99.90
11650;DHT22;5881;48.522;7.682;2023-07-24T08:00:01;19.30;99.90
11650;DHT22;5881;48.522;7.682;2023-07-24T08:02:26;19.40;99.90
11650;DHT22;5881;48.522;7.682;2023-07-24T08:04:52;19.50;99.90
11650;DHT22;5881;48.522;7.682;2023-07-24T08:07:18;19.60;99.90
11650;DHT22;5881;48.522;7.682;2023-07-24T08:09:45;19.60;99.90
11650;DHT22;5881;48.522;7.682;2023-07-24T08:12:11;19.70;99.90
11650;DHT22;5881;48.522;7.682;2023-07-24T08:14:37;19.80;1.00
11650;DHT22;5881;48.522;7.682;2023-07-24T08:17:02;20.00;1.00
11650;DHT22;5881;48.522;7.682;2023-07-24T08:19:28;20.00;1.00
11650;DHT22;5881;48.522;7.682;2023-07-24T08:21:55;20.20;1.00
11650;DHT22;5881;48.522;7.682;2023-07-24T08:24:20;20.00;99.90
11650;DHT22;5881;48.522;7.682;2023-07-24T08:26:46;20.10;99.90
11650;DHT22;5881;48.522;7.682;2023-07-24T08:29:12;20.40;99.90
11650;DHT22;5881;48.522;7.682;2023-07-24T08:31:38;20.60;99.90
11650;DHT22;5881;48.522;7.682;2023-07-24T08:34:03;20.70;99.90
11650;DHT22;5881;48.522;7.682;2023-07-24T08:36:29;20.60;99.90
11650;DHT22;5881;48.522;7.682;2023-07-24T08:38:55;20.70;99.90
11650;DHT22;5881;48.522;7.682;2023-07-24T08:41:21;20.60;1.00
11650;DHT22;5881;48.522;7.682;2023-07-24T08:43:46;20.50;99.90
11650;DHT22;5881;48.522;7.682;2023-07-24T08:46:12;20.50;99.90
11650;DHT22;5881;48.522;7.682;2023-07-24T08:48:39;20.60;99.90
11650;DHT22;5881;48.522;7.682;2023-07-24T08:51:11;20.50;99.90
11650;DHT22;5881;48.522;7.682;2023-07-24T08:53:38;20.50;99.90
11650;DHT22;5881;48.522;7.682;2023-07-24T08:56:05;20.50;1.00
11650;DHT22;5881;48.522;7.682;2023-07-24T08:58:32;20.40;1.00
11650;DHT22;5881;48.522;7.682;2023-07-24T09:00:59;20.50;99.90
11650;DHT22;5881;48.522;7.682;2023-07-24T09:03:25;20.40;91.20
11650;DHT22;5881;48.522;7.682;2023-07-24T09:05:50;20.30;1.00
11650;DHT22;5881;48.522;7.682;2023-07-24T09:08:16;20.20;1.00
11650;DHT22;5881;48.522;7.682;2023-07-24T09:10:42;20.30;1.00
11650;DHT22;5881;48.522;7.682;2023-07-24T09:13:11;20.20;1.00
11650;DHT22;5881;48.522;7.682;2023-07-24T09:15:44;20.20;99.90
11650;DHT22;5881;48.522;7.682;2023-07-24T09:18:10;20.10;1.00
11650;DHT22;5881;48.522;7.682;2023-07-24T09:20:40;20.10;99.90
11650;DHT22;5881;48.522;7.682;2023-07-24T09:23:07;20.10;1.00
11650;DHT22;5881;48.522;7.682;2023-07-24T09:25:35;20.00;1.00
11650;DHT22;5881;48.522;7.682;2023-07-24T09:28:15;20.00;1.00
11650;DHT22;5881;48.522;7.682;2023-07-24T09:30:42;19.90;1.00
11650;DHT22;5881;48.522;7.682;2023-07-24T09:33:16;19.90;1.00
11650;DHT22;5881;48.522;7.682;2023-07-24T09:35:41;19.80;62.90
11650;DHT22;5881;48.522;7.682;2023-07-24T09:38:09;19.70;99.90
11650;DHT22;5881;48.522;7.682;2023-07-24T09:40:45;19.60;99.90
11650;DHT22;5881;48.522;7.682;2023-07-24T09:43:21;19.50;99.90
11650;DHT22;5881;48.522;7.682;2023-07-24T09:45:48;19.50;99.90
11650;DHT22;5881;48.522;7.682;2023-07-24T09:48:16;19.50;99.90
11650;DHT22;5881;48.522;7.682;2023-07-24T09:50:44;19.40;99.90
11650;DHT22;5881;48.522;7.682;2023-07-24T09:53:46;19.50;99.90
11650;DHT22;5881;48.522;7.682;2023-07-24T09:56:14;19.40;99.90
11650;DHT22;5881;48.522;7.682;2023-07-24T09:58:40;19.20;99.90
11650;DHT22;5881;48.522;7.682;2023-07-24T10:01:08;19.10;99.90
11650;DHT22;5881;48.522;7.682;2023-07-24T10:03:35;19.00;99.90
11650;DHT22;5881;48.522;7.682;2023-07-24T10:06:01;18.90;99.90
11650;DHT22;5881;48.522;7.682;2023-07-24T10:08:27;18.80;99.90
11650;DHT22;5881;48.522;7.682;2023-07-24T10:10:53;18.80;99.90
11650;DHT22;5881;48.522;7.682;2023-07-24T10:13:20;18.70;99.90
11650;DHT22;5881;48.522;7.682;2023-07-24T10:15:48;18.70;99.90
11650;DHT22;5881;48.522;7.682;2023-07-24T10:18:16;18.60;99.90
11650;DHT22;5881;48.522;7.682;2023-07-24T10:20:46;18.60;99.90
11650;DHT22;5881;48.522;7.682;2023-07-24T10:23:17;18.60;99.90
11650;DHT22;5881;48.522;7.682;2023-07-24T10:25:44;18.60;99.90
11650;DHT22;5881;48.522;7.682;2023-07-24T10:28:12;18.60;99.90
11650;DHT22;5881;48.522;7.682;2023-07-24T10:30:39;18.60;99.90
11650;DHT22;5881;48.522;7.682;2023-07-24T10:33:18;18.60;99.90
11650;DHT22;5881;48.522;7.682;2023-07-24T10:35:51;18.60;99.90
11650;DHT22;5881;48.522;7.682;2023-07-24T10:38:17;18.50;99.90
11650;DHT22;5881;48.522;7.682;2023-07-24T10:40:46;18.50;99.90
11650;DHT22;5881;48.522;7.682;2023-07-24T10:43:18;18.50;99.90
11650;DHT22;5881;48.522;7.682;2023-07-24T10:45:54;18.60;99.90
11650;DHT22;5881;48.522;7.682;2023-07-24T10:48:25;18.50;99.90
11650;DHT22;5881;48.522;7.682;2023-07-24T10:50:52;18.70;99.90
11650;DHT22;5881;48.522;7.682;2023-07-24T10:53:22;18.80;99.90
11650;DHT22;5881;48.522;7.682;2023-07-24T10:55:48;18.80;99.90
11650;DHT22;5881;48.522;7.682;2023-07-24T10:58:14;19.00;99.90
11650;DHT22;5881;48.522;7.682;2023-07-24T11:00:40;19.10;99.90
11650;DHT22;5881;48.522;7.682;2023-07-24T11:03:10;19.00;99.90
11650;DHT22;5881;48.522;7.682;2023-07-24T11:05:43;19.30;99.90
11650;DHT22;5881;48.522;7.682;2023-07-24T11:08:11;19.50;99.90
11650;DHT22;5881;48.522;7.682;2023-07-24T11:10:53;19.60;99.90
11650;DHT22;5881;48.522;7.682;2023-07-24T11:13:22;19.60;99.90
11650;DHT22;5881;48.522;7.682;2023-07-24T11:15:49;19.40;99.90
11650;DHT22;5881;48.522;7.682;2023-07-24T11:18:15;19.20;99.90
11650;DHT22;5881;48.522;7.682;2023-07-24T11:20:47;19.10;99.90
11650;DHT22;5881;48.522;7.682;2023-07-24T11:23:13;19.10;99.90
11650;DHT22;5881;48.522;7.682;2023-07-24T11:25:39;19.20;99.90
11650;DHT22;5881;48.522;7.682;2023-07-24T11:28:09;19.10;99.90
11650;DHT22;5881;48.522;7.682;2023-07-24T11:30:35;19.10;99.90
11650;DHT22;5881;48.522;7.682;2023-07-24T11:33:03;19.10;99.90
11650;DHT22;5881;48.522;7.682;2023-07-24T11:35:30;19.00;99.90
11650;DHT22;5881;48.522;7.682;2023-07-24T11:37:56;19.00;99.90
11650;DHT22;5881;48.522;7.682;2023-07-24T11:40:29;19.00;99.90
11650;DHT22;5881;48.522;7.682;2023-07-24T11:42:55;18.90;99.90
11650;DHT22;5881;48.522;7.682;2023-07-24T11:45:21;18.90;99.90
11650;DHT22;5881;48.522;7.682;2023-07-24T11:47:50;18.80;99.90
11650;DHT22;5881;48.522;7.682;2023-07-24T11:50:18;18.80;99.90
11650;DHT22;5881;48.522;7.682;2023-07-24T11:52:45;18.70;99.90
11650;DHT22;5881;48.522;7.682;2023-07-24T11:55:13;18.70;99.90
11650;DHT22;5881;48.522;7.682;2023-07-24T11:57:39;18.60;99.90
11650;DHT22;5881;48.522;7.682;2023-07-24T12:00:18;18.70;99.90
11650;DHT22;5881;48.522;7.682;2023-07-24T12:02:44;18.80;99.90
11650;DHT22;5881;48.522;7.682;2023-07-24T12:05:10;18.90;99.90
11650;DHT22;5881;48.522;7.682;2023-07-24T12:07:36;18.90;99.90
11650;DHT22;5881;48.522;7.682;2023-07-24T12:10:04;18.90;99.90
11650;DHT22;5881;48.522;7.682;2023-07-24T12:15:05;18.90;99.90
11650;DHT22;5881;48.522;7.682;2023-07-24T12:17:30;18.80;99.90
11650;DHT22;5881;48.522;7.682;2023-07-24T12:19:56;18.80;99.90
11650;DHT22;5881;48.522;7.682;2023-07-24T12:22:22;18.70;99.90
11650;DHT22;5881;48.522;7.682;2023-07-24T12:24:47;18.80;99.90
11650;DHT22;5881;48.522;7.682;2023-07-24T12:27:13;18.80;99.90
11650;DHT22;5881;48.522;7.682;2023-07-24T12:29:39;18.90;99.90
11650;DHT22;5881;48.522;7.682;2023-07-24T12:32:04;18.90;99.90
11650;DHT22;5881;48.522;7.682;2023-07-24T12:34:30;19.00;99.90
11650;DHT22;5881;48.522;7.682;2023-07-24T12:36:56;19.20;99.90
11650;DHT22;5881;48.522;7.682;2023-07-24T12:39:21;19.40;99.90
11650;DHT22;5881;48.522;7.682;2023-07-24T12:41:47;19.50;99.90
11650;DHT22;5881;48.522;7.682;2023-07-24T12:44:13;19.80;99.90
11650;DHT22;5881;48.522;7.682;2023-07-24T12:46:38;20.10;1.00
11650;DHT22;5881;48.522;7.682;2023-07-24T12:49:04;20.20;99.90
11650;DHT22;5881;48.522;7.682;2023-07-24T12:51:29;20.70;1.00
11650;DHT22;5881;48.522;7.682;2023-07-24T12:53:55;21.00;1.00
11650;DHT22;5881;48.522;7.682;2023-07-24T12:56:21;21.30;99.90
11650;DHT22;5881;48.522;7.682;2023-07-24T12:58:47;21.20;99.90
11650;DHT22;5881;48.522;7.682;2023-07-24T13:01:12;21.30;99.90
11650;DHT22;5881;48.522;7.682;2023-07-24T13:03:38;21.50;99.90
11650;DHT22;5881;48.522;7.682;2023-07-24T13:06:03;21.30;99.90
11650;DHT22;5881;48.522;7.682;2023-07-24T13:08:29;21.40;99.90
11650;DHT22;5881;48.522;7.682;2023-07-24T13:10:55;21.80;1.00
11650;DHT22;5881;48.522;7.682;2023-07-24T13:13:21;22.00;26.40
11650;DHT22;5881;48.522;7.682;2023-07-24T13:15:47;22.20;99.90
11650;DHT22;5881;48.522;7.682;2023-07-24T13:18:16;22.70;1.00
11650;DHT22;5881;48.522;7.682;2023-07-24T13:20:42;22.70;99.90
11650;DHT22;5881;48.522;7.682;2023-07-24T13:23:07;23.30;99.90
11650;DHT22;5881;48.522;7.682;2023-07-24T13:25:33;23.50;99.90
11650;DHT22;5881;48.522;7.682;2023-07-24T13:27:59;23.50;99.90
11650;DHT22;5881;48.522;7.682;2023-07-24T13:30:24;23.40;99.90
11650;DHT22;5881;48.522;7.682;2023-07-24T13:32:50;23.60;99.90
11650;DHT22;5881;48.522;7.682;2023-07-24T13:35:16;23.70;99.90
11650;DHT22;5881;48.522;7.682;2023-07-24T13:37:42;23.30;99.90
11650;DHT22;5881;48.522;7.682;2023-07-24T13:40:08;23.30;99.90
11650;DHT22;5881;48.522;7.682;2023-07-24T13:42:34;23.10;99.90
11650;DHT22;5881;48.522;7.682;2023-07-24T13:44:59;23.40;99.90
11650;DHT22;5881;48.522;7.682;2023-07-24T13:47:25;23.60;91.40
11650;DHT22;5881;48.522;7.682;2023-07-24T13:49:51;23.70;79.60
11650;DHT22;5881;48.522;7.682;2023-07-24T13:52:16;24.10;52.40
11650;DHT22;5881;48.522;7.682;2023-07-24T13:54:42;24.00;34.30
11650;DHT22;5881;48.522;7.682;2023-07-24T13:57:07;24.10;35.00
11650;DHT22;5881;48.522;7.682;2023-07-24T13:59:34;24.00;23.30
11650;DHT22;5881;48.522;7.682;2023-07-24T14:02:00;24.00;21.40
11650;DHT22;5881;48.522;7.682;2023-07-24T14:04:26;23.80;38.40
11650;DHT22;5881;48.522;7.682;2023-07-24T14:06:51;24.00;31.00
11650;DHT22;5881;48.522;7.682;2023-07-24T14:09:17;23.80;25.40
11650;DHT22;5881;48.522;7.682;2023-07-24T14:11:42;23.80;17.60
11650;DHT22;5881;48.522;7.682;2023-07-24T14:14:08;23.70;22.10
11650;DHT22;5881;48.522;7.682;2023-07-24T14:16:34;23.80;18.10
11650;DHT22;5881;48.522;7.682;2023-07-24T14:18:59;24.20;28.20
11650;DHT22;5881;48.522;7.682;2023-07-24T14:21:25;24.40;13.30
11650;DHT22;5881;48.522;7.682;2023-07-24T14:23:51;24.20;3.80
11650;DHT22;5881;48.522;7.682;2023-07-24T14:26:16;24.00;1.00
11650;DHT22;5881;48.522;7.682;2023-07-24T14:28:42;23.80;1.00
11650;DHT22;5881;48.522;7.682;2023-07-24T14:31:07;23.60;4.20
11650;DHT22;5881;48.522;7.682;2023-07-24T14:33:33;23.40;6.40
11650;DHT22;5881;48.522;7.682;2023-07-24T14:35:59;23.40;16.00
11650;DHT22;5881;48.522;7.682;2023-07-24T14:38:24;23.50;19.00
11650;DHT22;5881;48.522;7.682;2023-07-24T14:40:50;23.30;11.80
11650;DHT22;5881;48.522;7.682;2023-07-24T14:43:15;23.30;16.10
11650;DHT22;5881;48.522;7.682;2023-07-24T14:45:41;23.20;1.90
11650;DHT22;5881;48.522;7.682;2023-07-24T14:48:06;23.20;4.60
11650;DHT22;5881;48.522;7.682;2023-07-24T14:50:35;23.10;1.80
11650;DHT22;5881;48.522;7.682;2023-07-24T14:53:01;23.10;1.90
11650;DHT22;5881;48.522;7.682;2023-07-24T14:55:26;23.00;9.40
11650;DHT22;5881;48.522;7.682;2023-07-24T14:57:52;22.80;7.80
11650;DHT22;5881;48.522;7.682;2023-07-24T15:00:18;22.80;12.10
11650;DHT22;5881;48.522;7.682;2023-07-24T15:02:43;22.80;17.80
11650;DHT22;5881;48.522;7.682;2023-07-24T15:05:09;22.70;28.00
11650;DHT22;5881;48.522;7.682;2023-07-24T15:07:34;22.60;28.00
11650;DHT22;5881;48.522;7.682;2023-07-24T15:10:00;22.50;25.20
11650;DHT22;5881;48.522;7.682;2023-07-24T15:12:26;22.50;34.30
11650;DHT22;5881;48.522;7.682;2023-07-24T15:14:51;22.40;30.30
11650;DHT22;5881;48.522;7.682;2023-07-24T15:17:17;22.40;31.20
11650;DHT22;5881;48.522;7.682;2023-07-24T15:19:43;22.20;71.40
11650;DHT22;5881;48.522;7.682;2023-07-24T15:22:09;21.70;99.90
11650;DHT22;5881;48.522;7.682;2023-07-24T15:24:35;21.40;99.90
11650;DHT22;5881;48.522;7.682;2023-07-24T15:27:00;21.10;99.90
11650;DHT22;5881;48.522;7.682;2023-07-24T15:29:33;21.00;99.90
11650;DHT22;5881;48.522;7.682;2023-07-24T15:31:59;20.90;89.00
11650;DHT22;5881;48.522;7.682;2023-07-24T15:34:24;21.00;99.90
11650;DHT22;5881;48.522;7.682;2023-07-24T15:36:50;21.40;1.00
11650;DHT22;5881;48.522;7.682;2023-07-24T15:39:15;22.10;27.10
11650;DHT22;5881;48.522;7.682;2023-07-24T15:41:41;22.60;1.00
11650;DHT22;5881;48.522;7.682;2023-07-24T15:44:07;23.00;99.90
11650;DHT22;5881;48.522;7.682;2023-07-24T15:46:32;23.40;99.90
11650;DHT22;5881;48.522;7.682;2023-07-24T15:48:58;23.70;99.90
11650;DHT22;5881;48.522;7.682;2023-07-24T15:51:25;23.80;99.90